KAWO

Arlington Municipal Airport

Arlington, Washington, USA
METAR KAWO 230056Z AUTO 17005KT 10SM CLR 11/09 A2989 RMK AO2 SLP126 T01110089
Observed Flight Rules
Oct-23 @ 00:56 UTC (11 minutes ago) Visual Flight Rules
Wind Visibility Clouds
170° at 5 knots 10 miles
  • Clear skies
Temperatures Readings
Current 11°C / 52°F
Dewpoint 9°C / 48°F
Humidity 88%
Altimeter 29.89" Hg
Pressure 1012.6 hPa
Elevation 42
METAR KAWO 230056Z AUTO 17005KT 10SM CLR 11/09 A2989 RMK AO2 SLP126 T01110089
Observed Flight Rules
Oct-23 @ 00:56 UTC
(11 minutes ago)
VFR
Wind Visibility
170° at 5 knots 10 miles
Clouds
  • Clear skies
Temperature Dewpoint
11°C / 52°F 9°C / 48°F
Humidity Altimeter Pressure
88% 29.89" Hg 1012.6 hPa